createdAt,value
2023-03-17T00:01:56.349Z,0.60
2023-03-17T00:04:24.837Z,0.70
2023-03-17T00:06:53.150Z,0.70
2023-03-17T00:09:22.496Z,0.70
2023-03-17T00:11:51.019Z,0.70
2023-03-17T00:14:19.996Z,0.70
2023-03-17T00:16:52.096Z,0.70
2023-03-17T00:19:33.102Z,0.70
2023-03-17T00:22:01.375Z,0.70
2023-03-17T00:24:29.169Z,0.80
2023-03-17T00:26:56.128Z,0.80
2023-03-17T00:29:23.924Z,0.80
2023-03-17T00:31:51.281Z,0.80
2023-03-17T00:34:19.449Z,0.80
2023-03-17T00:36:48.304Z,0.80
2023-03-17T00:41:43.766Z,0.80
2023-03-17T00:44:11.856Z,0.70
2023-03-17T00:46:41.766Z,0.70
2023-03-17T00:49:20.598Z,0.70
2023-03-17T00:51:48.821Z,0.70
2023-03-17T00:54:16.838Z,0.70
2023-03-17T00:56:44.449Z,0.70
2023-03-17T00:59:19.299Z,0.70
2023-03-17T01:01:47.642Z,0.70
2023-03-17T01:04:15.730Z,0.70
2023-03-17T01:06:43.366Z,0.70
2023-03-17T01:09:18.580Z,0.70
2023-03-17T01:11:45.743Z,0.70
2023-03-17T01:14:13.595Z,0.70
2023-03-17T01:16:40.964Z,0.70
2023-03-17T01:19:09.313Z,0.70
2023-03-17T01:21:36.686Z,0.70
2023-03-17T01:24:04.548Z,0.70
2023-03-17T01:26:31.668Z,0.80
2023-03-17T01:28:59.059Z,0.80
2023-03-17T01:31:26.356Z,0.80
2023-03-17T01:33:54.074Z,0.80
2023-03-17T01:36:21.039Z,0.80
2023-03-17T01:38:49.700Z,0.80
2023-03-17T01:41:21.013Z,0.80
2023-03-17T01:43:48.332Z,0.80
2023-03-17T01:46:29.413Z,0.80
2023-03-17T01:49:30.850Z,0.90
2023-03-17T01:52:16.428Z,0.90
2023-03-17T01:54:50.680Z,0.90
2023-03-17T01:57:28.621Z,0.90
2023-03-17T02:00:11.299Z,0.90
2023-03-17T02:02:43.920Z,1.00
2023-03-17T02:05:13.926Z,1.10
2023-03-17T02:07:41.644Z,1.10
2023-03-17T02:10:09.904Z,1.10
2023-03-17T02:12:37.205Z,1.10
2023-03-17T02:15:05.999Z,1.10
2023-03-17T02:17:32.913Z,1.10
2023-03-17T02:20:29.654Z,1.10
2023-03-17T02:22:57.381Z,1.20
2023-03-17T02:25:26.179Z,1.20
2023-03-17T02:27:57.824Z,1.20
2023-03-17T02:30:25.517Z,1.20
2023-03-17T02:32:52.512Z,1.20
2023-03-17T02:35:20.537Z,1.20
2023-03-17T02:37:47.651Z,1.20
2023-03-17T02:40:15.802Z,1.20
2023-03-17T02:42:42.773Z,1.20
2023-03-17T02:45:12.115Z,1.20
2023-03-17T02:47:39.456Z,1.20
2023-03-17T02:50:08.874Z,1.30
2023-03-17T02:52:35.955Z,1.30
2023-03-17T02:55:02.896Z,1.30
2023-03-17T02:57:29.927Z,1.20
2023-03-17T02:59:56.846Z,1.20
2023-03-17T03:02:23.768Z,1.20
2023-03-17T03:04:50.933Z,1.30
2023-03-17T03:07:18.155Z,1.30
2023-03-17T03:09:45.567Z,1.30
2023-03-17T03:12:13.907Z,1.40
2023-03-17T03:14:41.097Z,1.40
2023-03-17T03:17:09.180Z,1.40
2023-03-17T03:19:36.127Z,1.40
2023-03-17T03:22:03.236Z,1.30
2023-03-17T03:24:30.144Z,1.40
2023-03-17T03:26:57.312Z,1.40
2023-03-17T03:29:24.246Z,1.40
2023-03-17T03:31:51.304Z,1.40
2023-03-17T03:34:18.161Z,1.40
2023-03-17T03:36:45.317Z,1.40
2023-03-17T03:39:14.467Z,1.40
2023-03-17T03:41:41.971Z,1.40
2023-03-17T03:44:09.146Z,1.30
2023-03-17T03:46:36.070Z,1.30
2023-03-17T03:49:03.107Z,1.30
2023-03-17T03:51:30.154Z,1.30
2023-03-17T03:53:57.129Z,1.30
2023-03-17T03:56:24.332Z,1.30
2023-03-17T03:58:51.401Z,1.40
2023-03-17T04:01:18.660Z,1.40
2023-03-17T04:03:47.454Z,1.40
2023-03-17T04:06:14.472Z,1.40
2023-03-17T04:08:41.300Z,1.40
2023-03-17T04:11:08.991Z,1.50
2023-03-17T04:13:36.092Z,1.50
2023-03-17T04:16:03.479Z,1.50
2023-03-17T04:18:31.689Z,1.50
2023-03-17T04:20:58.619Z,1.50
2023-03-17T04:23:25.510Z,1.50
2023-03-17T04:25:53.232Z,1.50
2023-03-17T04:28:22.561Z,1.50
2023-03-17T04:30:49.631Z,1.50
2023-03-17T04:33:16.853Z,1.50
2023-03-17T04:35:44.100Z,1.60
2023-03-17T04:38:13.242Z,1.60
2023-03-17T04:40:40.192Z,1.60
2023-03-17T04:43:07.314Z,1.60
2023-03-17T04:45:34.343Z,1.70
2023-03-17T04:48:01.571Z,1.70
2023-03-17T04:50:28.529Z,1.70
2023-03-17T04:52:55.812Z,1.70
2023-03-17T04:55:22.725Z,1.70
2023-03-17T04:57:49.856Z,1.80
2023-03-17T05:00:17.015Z,1.70
2023-03-17T05:02:44.240Z,1.70
2023-03-17T05:05:11.235Z,1.80
2023-03-17T05:07:38.215Z,1.80
2023-03-17T05:10:06.540Z,1.80
2023-03-17T05:12:33.485Z,1.80
2023-03-17T05:15:00.439Z,1.80
2023-03-17T05:17:27.400Z,1.90
2023-03-17T05:19:54.434Z,1.90
2023-03-17T05:22:21.332Z,2.00
2023-03-17T05:24:48.205Z,2.00
2023-03-17T05:27:15.521Z,2.00
2023-03-17T05:29:42.469Z,2.00
2023-03-17T05:32:09.477Z,2.00
2023-03-17T05:34:36.549Z,2.00
2023-03-17T05:37:03.471Z,2.00
2023-03-17T05:39:30.363Z,2.00
2023-03-17T05:41:57.716Z,2.00
2023-03-17T05:44:24.896Z,2.00
2023-03-17T05:46:51.842Z,2.00
2023-03-17T05:49:19.177Z,2.00
2023-03-17T05:51:46.554Z,2.10
2023-03-17T05:54:13.896Z,2.10
2023-03-17T05:56:42.804Z,2.20
2023-03-17T05:59:10.579Z,2.10
2023-03-17T06:01:37.549Z,2.20
2023-03-17T06:04:04.463Z,2.10
2023-03-17T06:06:32.227Z,2.10
2023-03-17T06:08:59.558Z,2.10
2023-03-17T06:11:26.758Z,2.00
2023-03-17T06:13:54.009Z,2.10
2023-03-17T06:16:21.136Z,2.10
2023-03-17T06:18:48.799Z,2.10
2023-03-17T06:21:16.012Z,2.10
2023-03-17T06:23:43.612Z,2.10
2023-03-17T06:26:11.013Z,2.10
2023-03-17T06:28:37.988Z,2.10
2023-03-17T06:31:07.238Z,2.20
2023-03-17T06:33:34.833Z,2.20
2023-03-17T06:36:01.984Z,2.20
2023-03-17T06:38:29.144Z,2.20
2023-03-17T06:40:56.028Z,2.20
2023-03-17T06:43:24.994Z,2.30
2023-03-17T06:45:52.598Z,2.30
2023-03-17T06:48:19.708Z,2.20
2023-03-17T06:50:47.875Z,2.20
2023-03-17T06:53:14.845Z,2.20
2023-03-17T06:55:42.172Z,2.30
2023-03-17T06:58:10.735Z,2.30
2023-03-17T07:00:40.645Z,2.40
2023-03-17T07:03:07.887Z,2.40
2023-03-17T07:05:34.858Z,2.40
2023-03-17T07:08:01.790Z,2.40
2023-03-17T07:10:28.640Z,2.40
2023-03-17T07:12:55.987Z,2.40
2023-03-17T07:15:24.074Z,2.40
2023-03-17T07:17:51.050Z,2.40
2023-03-17T07:20:19.007Z,2.40
2023-03-17T07:22:46.581Z,2.50
2023-03-17T07:25:13.476Z,2.50
2023-03-17T07:27:40.402Z,2.50
2023-03-17T07:30:08.387Z,2.50
2023-03-17T07:32:35.570Z,2.60
2023-03-17T07:35:02.941Z,2.60
2023-03-17T07:37:29.867Z,2.60
2023-03-17T07:39:56.952Z,2.60
2023-03-17T07:42:23.860Z,2.70
2023-03-17T07:44:50.959Z,2.60
2023-03-17T07:47:17.859Z,2.70
2023-03-17T07:49:44.904Z,2.80
2023-03-17T07:52:12.738Z,2.80
2023-03-17T07:54:43.032Z,2.80
2023-03-17T07:57:10.547Z,2.80
2023-03-17T07:59:38.333Z,2.80
2023-03-17T08:02:05.349Z,2.80
2023-03-17T08:04:32.458Z,2.80
2023-03-17T08:06:59.360Z,2.80
2023-03-17T08:09:27.220Z,2.90
2023-03-17T08:11:54.154Z,2.90
2023-03-17T08:14:21.374Z,2.90
2023-03-17T08:16:48.352Z,3.00
2023-03-17T08:19:16.320Z,3.00
2023-03-17T08:21:43.258Z,3.00
2023-03-17T08:24:10.976Z,3.00
2023-03-17T08:26:38.280Z,3.00
2023-03-17T08:29:05.540Z,3.10
2023-03-17T08:31:33.987Z,3.10
2023-03-17T08:34:02.711Z,3.20
2023-03-17T08:36:30.300Z,3.20
2023-03-17T08:38:57.229Z,3.20
2023-03-17T08:41:26.951Z,3.30
2023-03-17T08:43:55.007Z,3.30
2023-03-17T08:46:28.724Z,3.40
2023-03-17T08:48:56.816Z,3.40
2023-03-17T08:51:26.724Z,3.40
2023-03-17T08:53:55.308Z,3.40
2023-03-17T08:56:23.042Z,3.40
2023-03-17T08:58:51.057Z,3.50
2023-03-17T09:01:19.108Z,3.50
2023-03-17T09:03:46.873Z,3.50
2023-03-17T09:06:14.481Z,3.50
2023-03-17T09:08:45.125Z,3.50
2023-03-17T09:11:16.585Z,3.60
2023-03-17T09:13:44.325Z,3.60
2023-03-17T09:16:11.529Z,3.70
2023-03-17T09:18:38.952Z,3.80
2023-03-17T09:21:06.496Z,3.80
2023-03-17T09:23:33.832Z,3.80
2023-03-17T09:26:01.265Z,3.80
2023-03-17T09:28:29.222Z,3.80
2023-03-17T09:31:11.478Z,3.70
2023-03-17T09:33:42.453Z,3.70
2023-03-17T09:36:10.511Z,3.70
2023-03-17T09:38:37.936Z,3.60
2023-03-17T09:41:19.908Z,3.60
2023-03-17T09:43:52.996Z,3.50
2023-03-17T09:46:26.127Z,3.60
2023-03-17T09:48:56.048Z,3.60
2023-03-17T09:51:23.061Z,3.60
2023-03-17T09:53:59.995Z,3.60
2023-03-17T09:56:34.675Z,3.60
2023-03-17T09:59:33.284Z,3.60
2023-03-17T10:02:00.427Z,3.70
2023-03-17T10:04:28.196Z,3.70
2023-03-17T10:07:04.726Z,3.70
2023-03-17T10:09:54.775Z,3.60
2023-03-17T10:12:36.288Z,3.60
2023-03-17T10:15:13.641Z,3.50
2023-03-17T10:17:42.256Z,3.50
2023-03-17T10:20:14.177Z,3.50
2023-03-17T10:22:49.298Z,3.50
2023-03-17T10:25:22.461Z,3.50
2023-03-17T10:27:57.186Z,3.50
2023-03-17T10:30:24.325Z,3.60
2023-03-17T10:32:52.956Z,3.50
2023-03-17T10:35:22.163Z,3.60
2023-03-17T10:37:49.295Z,3.60
2023-03-17T10:40:22.826Z,3.50
2023-03-17T10:43:00.108Z,3.50
2023-03-17T10:45:33.236Z,3.50
2023-03-17T10:48:02.680Z,3.50
2023-03-17T10:50:33.189Z,3.50
2023-03-17T10:53:28.325Z,3.50
2023-03-17T10:56:02.466Z,3.50
2023-03-17T10:58:36.278Z,3.60
2023-03-17T11:01:08.549Z,3.50
2023-03-17T11:03:42.124Z,3.50
2023-03-17T11:06:11.855Z,3.40
2023-03-17T11:08:55.670Z,3.50
2023-03-17T11:11:30.476Z,3.40
2023-03-17T11:14:13.518Z,3.50
2023-03-17T11:16:57.357Z,3.60
2023-03-17T11:19:49.245Z,3.70
2023-03-17T11:22:24.258Z,3.70
2023-03-17T11:24:59.588Z,3.70
2023-03-17T11:27:32.504Z,3.80
2023-03-17T11:30:33.075Z,3.90
2023-03-17T11:33:18.953Z,3.80
2023-03-17T11:36:00.542Z,3.80
2023-03-17T11:38:30.195Z,3.80
2023-03-17T11:41:15.593Z,3.80
2023-03-17T11:44:07.428Z,3.80
2023-03-17T11:46:46.695Z,3.80
2023-03-17T11:49:38.799Z,3.80
2023-03-17T11:52:34.409Z,3.80
2023-03-17T11:55:44.679Z,3.80
2023-03-17T11:58:27.478Z,3.80
2023-03-17T12:00:58.476Z,3.80
2023-03-17T12:03:38.860Z,3.70
2023-03-17T12:06:13.946Z,3.70
2023-03-17T12:08:52.992Z,3.80
2023-03-17T12:11:28.998Z,3.80
2023-03-17T12:14:19.224Z,3.80
2023-03-17T12:17:02.405Z,3.80
2023-03-17T12:20:09.597Z,3.70
2023-03-17T12:22:42.885Z,3.70
2023-03-17T12:25:20.851Z,3.70
2023-03-17T12:28:04.422Z,3.70
2023-03-17T12:30:41.162Z,3.80
2023-03-17T12:33:40.737Z,3.80
2023-03-17T12:36:11.699Z,3.80
2023-03-17T12:38:51.962Z,3.70
2023-03-17T12:42:17.461Z,3.70
2023-03-17T12:45:22.398Z,3.70
2023-03-17T12:48:11.167Z,3.70
2023-03-17T12:51:08.049Z,3.70
2023-03-17T12:53:47.992Z,3.60
2023-03-17T12:56:33.602Z,3.50
2023-03-17T12:59:13.670Z,3.50
2023-03-17T13:01:46.749Z,3.50
2023-03-17T13:04:38.056Z,3.50
2023-03-17T13:07:17.275Z,3.40
2023-03-17T13:10:09.594Z,3.50
2023-03-17T13:12:39.491Z,3.50
2023-03-17T13:15:21.792Z,3.40
2023-03-17T13:17:49.182Z,3.40
2023-03-17T13:20:19.046Z,3.30
2023-03-17T13:23:44.228Z,3.40
2023-03-17T13:26:20.940Z,3.40
2023-03-17T13:28:50.293Z,3.40
2023-03-17T13:31:33.598Z,3.40
2023-03-17T13:34:15.277Z,3.40
2023-03-17T13:37:26.354Z,3.40
2023-03-17T13:40:25.465Z,3.40
2023-03-17T13:43:13.186Z,3.40
2023-03-17T13:45:42.163Z,3.40
2023-03-17T13:48:38.089Z,3.40
2023-03-17T13:51:25.376Z,3.50
2023-03-17T13:53:56.507Z,3.50
2023-03-17T13:56:45.572Z,3.50
2023-03-17T13:59:19.602Z,3.50
2023-03-17T14:01:55.785Z,3.50
2023-03-17T14:04:47.286Z,3.50
2023-03-17T14:07:21.436Z,3.50
2023-03-17T14:09:53.517Z,3.50
2023-03-17T14:12:41.841Z,3.50
2023-03-17T14:15:14.785Z,3.50
2023-03-17T14:17:47.461Z,3.50
2023-03-17T14:20:18.503Z,3.40
2023-03-17T14:22:54.204Z,3.50
2023-03-17T14:25:24.153Z,3.50
2023-03-17T14:27:57.009Z,3.50
2023-03-17T14:30:26.605Z,3.50
2023-03-17T14:33:12.080Z,3.50
2023-03-17T14:35:43.347Z,3.50
2023-03-17T14:38:28.444Z,3.50
2023-03-17T14:41:04.381Z,3.50
2023-03-17T14:43:32.498Z,3.50
2023-03-17T14:46:02.597Z,3.50
2023-03-17T14:48:33.177Z,3.40
2023-03-17T14:51:08.491Z,3.40
2023-03-17T14:53:39.893Z,3.40
2023-03-17T14:56:07.593Z,3.40
2023-03-17T14:58:42.518Z,3.30
2023-03-17T15:01:22.539Z,3.30
2023-03-17T15:04:13.595Z,3.30
2023-03-17T15:06:58.272Z,3.30
2023-03-17T15:09:39.329Z,3.30
2023-03-17T15:12:22.267Z,3.40
2023-03-17T15:14:56.500Z,3.40
2023-03-17T15:17:34.911Z,3.30
2023-03-17T15:20:05.371Z,3.40
2023-03-17T15:22:35.316Z,3.40
2023-03-17T15:25:26.037Z,3.40
2023-03-17T15:27:54.045Z,3.30
2023-03-17T15:30:21.446Z,3.30
2023-03-17T15:32:53.181Z,3.20
2023-03-17T15:35:20.134Z,3.30
2023-03-17T15:37:47.224Z,3.30
2023-03-17T15:40:15.736Z,3.20
2023-03-17T15:42:42.800Z,3.20
2023-03-17T15:45:11.619Z,3.20
2023-03-17T15:47:41.685Z,3.30
2023-03-17T15:50:30.243Z,3.30
2023-03-17T15:52:57.970Z,3.40
2023-03-17T15:55:29.917Z,3.40
2023-03-17T15:57:58.249Z,3.40
2023-03-17T16:00:29.830Z,3.40
2023-03-17T16:03:02.266Z,3.40
2023-03-17T16:05:35.161Z,3.40
2023-03-17T16:08:02.402Z,3.40
2023-03-17T16:10:31.923Z,3.40
2023-03-17T16:12:59.562Z,3.40
2023-03-17T16:15:31.501Z,3.40
2023-03-17T16:18:04.376Z,3.40
2023-03-17T16:20:40.236Z,3.40
2023-03-17T16:23:27.682Z,3.50
2023-03-17T16:25:59.326Z,3.40
2023-03-17T16:28:32.942Z,3.40
2023-03-17T16:31:02.406Z,3.40
2023-03-17T16:33:36.657Z,3.40
2023-03-17T16:36:03.664Z,3.30
2023-03-17T16:38:32.798Z,3.30
2023-03-17T16:41:19.251Z,3.30
2023-03-17T16:43:51.083Z,3.30
2023-03-17T16:46:19.709Z,3.20
2023-03-17T16:48:48.379Z,3.20
2023-03-17T16:51:15.521Z,3.20
2023-03-17T16:53:42.371Z,3.20
2023-03-17T16:56:19.455Z,3.20
2023-03-17T16:58:47.425Z,3.20
2023-03-17T17:01:21.783Z,3.20
2023-03-17T17:03:49.800Z,3.20
2023-03-17T17:06:18.630Z,3.20
2023-03-17T17:08:46.450Z,3.30
2023-03-17T17:11:14.716Z,3.30
2023-03-17T17:13:43.450Z,3.20
2023-03-17T17:16:32.164Z,3.30
2023-03-17T17:18:59.878Z,3.30
2023-03-17T17:21:27.838Z,3.30
2023-03-17T17:23:55.809Z,3.30
2023-03-17T17:26:23.362Z,3.30
2023-03-17T17:28:50.556Z,3.30
2023-03-17T17:31:17.803Z,3.30
2023-03-17T17:33:45.177Z,3.40
2023-03-17T17:36:15.241Z,3.40
2023-03-17T17:38:42.866Z,3.40
2023-03-17T17:41:12.024Z,3.40
2023-03-17T17:43:39.754Z,3.40
2023-03-17T17:46:30.941Z,3.30
2023-03-17T17:48:58.044Z,3.40
2023-03-17T17:51:24.936Z,3.40
2023-03-17T17:53:51.909Z,3.40
2023-03-17T17:56:18.987Z,3.40
2023-03-17T17:58:46.574Z,3.40
2023-03-17T18:01:16.965Z,3.40
2023-03-17T18:03:43.933Z,3.40
2023-03-17T18:06:13.165Z,3.40
2023-03-17T18:08:40.907Z,3.30
2023-03-17T18:11:08.062Z,3.30
2023-03-17T18:13:36.234Z,3.30
2023-03-17T18:16:03.972Z,3.30
2023-03-17T18:18:32.613Z,3.40
2023-03-17T18:20:59.971Z,3.40
2023-03-17T18:23:27.473Z,3.40
2023-03-17T18:26:04.741Z,3.40
2023-03-17T18:28:32.150Z,3.40
2023-03-17T18:31:09.648Z,3.40
2023-03-17T18:33:37.378Z,3.40
2023-03-17T18:36:08.768Z,3.40
2023-03-17T18:38:36.398Z,3.40
2023-03-17T18:41:03.887Z,3.40
2023-03-17T18:43:30.990Z,3.40
2023-03-17T18:45:57.939Z,3.40
2023-03-17T18:48:25.012Z,3.40
2023-03-17T18:50:51.950Z,3.40
2023-03-17T18:53:19.097Z,3.40
2023-03-17T18:55:46.261Z,3.40
2023-03-17T18:58:13.187Z,3.40
2023-03-17T19:00:40.277Z,3.40
2023-03-17T19:03:07.383Z,3.50
2023-03-17T19:05:38.483Z,3.50
2023-03-17T19:08:05.595Z,3.50
2023-03-17T19:10:32.894Z,3.50
2023-03-17T19:13:00.028Z,3.40
2023-03-17T19:15:26.977Z,3.40
2023-03-17T19:17:53.815Z,3.50
2023-03-17T19:20:20.791Z,3.50
2023-03-17T19:22:47.704Z,3.50
2023-03-17T19:25:16.516Z,3.50
2023-03-17T19:27:43.437Z,3.40
2023-03-17T19:30:11.028Z,3.40
2023-03-17T19:32:38.055Z,3.40
2023-03-17T19:35:05.816Z,3.40
2023-03-17T19:37:32.737Z,3.40
2023-03-17T19:39:59.774Z,3.40
2023-03-17T19:42:26.712Z,3.40
2023-03-17T19:44:53.603Z,3.40
2023-03-17T19:47:20.497Z,3.40
2023-03-17T19:49:47.636Z,3.50
2023-03-17T19:52:14.711Z,3.40
2023-03-17T19:54:46.022Z,3.40
2023-03-17T19:57:13.924Z,3.40
2023-03-17T19:59:41.033Z,3.40
2023-03-17T20:02:08.024Z,3.40
2023-03-17T20:04:35.012Z,3.40
2023-03-17T20:07:01.903Z,3.40
2023-03-17T20:09:28.803Z,3.40
2023-03-17T20:11:56.665Z,3.40
2023-03-17T20:14:24.110Z,3.50
2023-03-17T20:16:52.031Z,3.50
2023-03-17T20:19:19.044Z,3.40
2023-03-17T20:21:46.102Z,3.40
2023-03-17T20:24:14.780Z,3.40
2023-03-17T20:26:43.485Z,3.40
2023-03-17T20:29:14.319Z,3.40
2023-03-17T20:31:42.472Z,3.50
2023-03-17T20:34:10.634Z,3.50
2023-03-17T20:36:42.131Z,3.50
2023-03-17T20:39:13.819Z,3.50
2023-03-17T20:41:41.375Z,3.50
2023-03-17T20:44:08.247Z,3.50
2023-03-17T20:46:35.435Z,3.50
2023-03-17T20:49:03.195Z,3.50
2023-03-17T20:51:30.893Z,3.50
2023-03-17T20:53:58.052Z,3.50
2023-03-17T20:56:26.637Z,3.50
2023-03-17T20:58:53.622Z,3.50
2023-03-17T21:01:21.756Z,3.50
2023-03-17T21:03:49.281Z,3.60
2023-03-17T21:06:17.679Z,3.60
2023-03-17T21:08:46.164Z,3.60
2023-03-17T21:11:19.040Z,3.60
2023-03-17T21:13:46.613Z,3.70
2023-03-17T21:16:19.819Z,3.60
2023-03-17T21:18:47.608Z,3.70
2023-03-17T21:21:14.962Z,3.60
2023-03-17T21:23:41.952Z,3.60
2023-03-17T21:26:09.278Z,3.60
2023-03-17T21:28:38.679Z,3.60
2023-03-17T21:31:07.002Z,3.60
2023-03-17T21:33:34.724Z,3.70
2023-03-17T21:36:02.032Z,3.70
2023-03-17T21:38:29.701Z,3.70
2023-03-17T21:40:57.664Z,3.70
2023-03-17T21:43:25.376Z,3.70
2023-03-17T21:45:52.519Z,3.70
2023-03-17T21:48:20.669Z,3.70
2023-03-17T21:50:48.960Z,3.70
2023-03-17T21:53:15.953Z,3.70
2023-03-17T21:55:42.840Z,3.70
2023-03-17T21:58:09.773Z,3.80
2023-03-17T22:00:45.057Z,3.70
2023-03-17T22:03:12.248Z,3.80
2023-03-17T22:05:39.151Z,3.80
2023-03-17T22:08:06.538Z,3.80
2023-03-17T22:10:33.882Z,3.80
2023-03-17T22:13:01.081Z,3.80
2023-03-17T22:15:29.222Z,3.80
2023-03-17T22:17:57.752Z,3.80
2023-03-17T22:20:24.619Z,3.80
2023-03-17T22:22:51.527Z,3.80
2023-03-17T22:25:18.474Z,3.80
2023-03-17T22:27:46.869Z,3.80
2023-03-17T22:30:14.628Z,3.80
2023-03-17T22:32:41.634Z,3.80
2023-03-17T22:35:08.832Z,3.90
2023-03-17T22:37:36.822Z,3.80
2023-03-17T22:40:06.395Z,3.90
2023-03-17T22:42:33.733Z,3.90
2023-03-17T22:45:00.684Z,3.90
2023-03-17T22:47:27.534Z,3.90
2023-03-17T22:49:54.425Z,4.00
2023-03-17T22:52:21.400Z,3.90
2023-03-17T22:54:48.289Z,3.90
2023-03-17T22:57:15.628Z,3.90
2023-03-17T22:59:43.012Z,3.90
2023-03-17T23:02:11.339Z,3.90
2023-03-17T23:04:38.189Z,3.90
2023-03-17T23:07:05.608Z,3.90
2023-03-17T23:09:32.851Z,3.90
2023-03-17T23:12:00.605Z,3.90
2023-03-17T23:14:27.567Z,3.90
2023-03-17T23:16:54.809Z,3.90
2023-03-17T23:19:22.254Z,3.90
2023-03-17T23:21:49.297Z,3.90
2023-03-17T23:24:16.821Z,3.90
2023-03-17T23:26:43.713Z,3.90
2023-03-17T23:29:10.671Z,3.90
2023-03-17T23:31:38.357Z,3.90
2023-03-17T23:34:06.717Z,3.90
2023-03-17T23:36:33.925Z,3.90
2023-03-17T23:39:02.271Z,3.90
2023-03-17T23:41:29.601Z,4.00
2023-03-17T23:43:56.815Z,4.00
2023-03-17T23:46:23.772Z,4.00
2023-03-17T23:48:50.847Z,4.00
2023-03-17T23:51:18.279Z,4.00
2023-03-17T23:53:46.473Z,4.00
2023-03-17T23:56:13.432Z,4.00
2023-03-17T23:58:43.416Z,4.10
